sensor_id;sensor_type;location;lat;lon;timestamp;pressure;altitude;pressure_sealevel;temperature;humidity
54910;BME280;63189;51.240;9.964;2023-02-26T00:00:08;97557.97;;;-1.94;88.57
54910;BME280;63189;51.240;9.964;2023-02-26T00:02:37;97563.06;;;-1.96;88.91
54910;BME280;63189;51.240;9.964;2023-02-26T00:05:04;97568.19;;;-1.96;89.08
54910;BME280;63189;51.240;9.964;2023-02-26T00:07:30;97572.44;;;-1.96;89.18
54910;BME280;63189;51.240;9.964;2023-02-26T00:09:55;97569.84;;;-1.98;88.77
54910;BME280;63189;51.240;9.964;2023-02-26T00:12:21;97580.06;;;-1.98;89.58
54910;BME280;63189;51.240;9.964;2023-02-26T00:14:47;97569.78;;;-2.03;89.49
54910;BME280;63189;51.240;9.964;2023-02-26T00:19:59;97576.56;;;-2.05;90.99
54910;BME280;63189;51.240;9.964;2023-02-26T00:22:25;97569.78;;;-2.04;91.35
54910;BME280;63189;51.240;9.964;2023-02-26T00:24:51;97574.03;;;-2.05;91.09
54910;BME280;63189;51.240;9.964;2023-02-26T00:27:16;97570.59;;;-2.07;91.36
54910;BME280;63189;51.240;9.964;2023-02-26T00:29:42;97562.03;;;-2.09;91.69
54910;BME280;63189;51.240;9.964;2023-02-26T00:32:08;97570.59;;;-2.08;92.15
54910;BME280;63189;51.240;9.964;2023-02-26T00:34:34;97570.50;;;-2.13;92.44
54910;BME280;63189;51.240;9.964;2023-02-26T00:37:11;97577.31;;;-2.12;92.56
54910;BME280;63189;51.240;9.964;2023-02-26T00:42:11;97583.25;;;-2.16;92.54
54910;BME280;63189;51.240;9.964;2023-02-26T00:44:37;97586.66;;;-2.14;93.01
54910;BME280;63189;51.240;9.964;2023-02-26T00:47:35;97592.63;;;-2.15;92.94
54910;BME280;63189;51.240;9.964;2023-02-26T00:52:45;97600.25;;;-2.16;92.98
54910;BME280;63189;51.240;9.964;2023-02-26T00:55:13;97600.19;;;-2.19;93.30
54910;BME280;63189;51.240;9.964;2023-02-26T00:57:38;97595.91;;;-2.22;93.34
54910;BME280;63189;51.240;9.964;2023-02-26T01:00:05;97613.78;;;-2.23;93.79
54910;BME280;63189;51.240;9.964;2023-02-26T01:02:33;97608.63;;;-2.26;94.00
54910;BME280;63189;51.240;9.964;2023-02-26T01:04:59;97609.47;;;-2.27;94.12
54910;BME280;63189;51.240;9.964;2023-02-26T01:07:26;97611.19;;;-2.26;94.38
54910;BME280;63189;51.240;9.964;2023-02-26T01:09:52;97610.31;;;-2.27;94.58
54910;BME280;63189;51.240;9.964;2023-02-26T01:12:18;97614.59;;;-2.26;94.51
54910;BME280;63189;51.240;9.964;2023-02-26T01:14:43;97600.91;;;-2.29;94.84
54910;BME280;63189;51.240;9.964;2023-02-26T01:17:31;97608.63;;;-2.28;94.79
54910;BME280;63189;51.240;9.964;2023-02-26T01:20:05;97606.91;;;-2.29;95.25
54910;BME280;63189;51.240;9.964;2023-02-26T01:22:39;97607.78;;;-2.27;95.26
54910;BME280;63189;51.240;9.964;2023-02-26T01:28:03;97612.78;;;-2.32;94.80
54910;BME280;63189;51.240;9.964;2023-02-26T01:30:28;97610.22;;;-2.35;95.15
54910;BME280;63189;51.240;9.964;2023-02-26T01:33:09;97621.28;;;-2.34;95.26
54910;BME280;63189;51.240;9.964;2023-02-26T01:35:47;97614.47;;;-2.35;95.48
54910;BME280;63189;51.240;9.964;2023-02-26T01:38:26;97618.66;;;-2.39;95.20
54910;BME280;63189;51.240;9.964;2023-02-26T01:41:09;97616.06;;;-2.40;95.38
54910;BME280;63189;51.240;9.964;2023-02-26T01:46:49;97611.78;;;-2.43;95.33
54910;BME280;63189;51.240;9.964;2023-02-26T01:49:19;97622.78;;;-2.47;95.61
54910;BME280;63189;51.240;9.964;2023-02-26T01:51:54;97629.63;;;-2.44;95.78
54910;BME280;63189;51.240;9.964;2023-02-26T01:54:23;97617.72;;;-2.45;95.34
54910;BME280;63189;51.240;9.964;2023-02-26T01:56:55;97621.97;;;-2.46;96.02
54910;BME280;63189;51.240;9.964;2023-02-26T01:59:21;97622.78;;;-2.47;95.82
54910;BME280;63189;51.240;9.964;2023-02-26T02:01:51;97630.44;;;-2.48;95.79
54910;BME280;63189;51.240;9.964;2023-02-26T02:04:17;97632.13;;;-2.49;95.82
54910;BME280;63189;51.240;9.964;2023-02-26T02:06:43;97629.50;;;-2.52;95.50
54910;BME280;63189;51.240;9.964;2023-02-26T02:09:09;97645.72;;;-2.50;95.59
54910;BME280;63189;51.240;9.964;2023-02-26T02:11:42;97646.50;;;-2.52;95.60
54910;BME280;63189;51.240;9.964;2023-02-26T02:17:27;97649.03;;;-2.55;95.80
54910;BME280;63189;51.240;9.964;2023-02-26T02:25:50;97658.34;;;-2.57;96.17
54910;BME280;63189;51.240;9.964;2023-02-26T02:28:31;97654.94;;;-2.59;96.17
54910;BME280;63189;51.240;9.964;2023-02-26T02:31:12;97654.84;;;-2.63;96.09
54910;BME280;63189;51.240;9.964;2023-02-26T02:33:58;97665.03;;;-2.66;95.97
54910;BME280;63189;51.240;9.964;2023-02-26T02:36:34;97671.84;;;-2.65;96.04
54910;BME280;63189;51.240;9.964;2023-02-26T02:39:06;97667.59;;;-2.64;96.63
54910;BME280;63189;51.240;9.964;2023-02-26T02:41:41;97681.22;;;-2.62;96.61
54910;BME280;63189;51.240;9.964;2023-02-26T02:44:12;97679.59;;;-2.60;96.46
54910;BME280;63189;51.240;9.964;2023-02-26T02:46:42;97685.59;;;-2.56;96.72
54910;BME280;63189;51.240;9.964;2023-02-26T02:49:15;97694.13;;;-2.56;96.38
54910;BME280;63189;51.240;9.964;2023-02-26T02:51:47;97702.66;;;-2.54;96.89
54910;BME280;63189;51.240;9.964;2023-02-26T02:54:21;97701.00;;;-2.50;96.86
54910;BME280;63189;51.240;9.964;2023-02-26T02:59:38;97699.34;;;-2.48;96.74
54910;BME280;63189;51.240;9.964;2023-02-26T03:04:56;97703.63;;;-2.46;97.88
54910;BME280;63189;51.240;9.964;2023-02-26T03:07:21;97706.16;;;-2.47;97.55
54910;BME280;63189;51.240;9.964;2023-02-26T03:09:47;97709.59;;;-2.45;97.57
54910;BME280;63189;51.240;9.964;2023-02-26T03:12:12;97710.44;;;-2.46;97.46
54910;BME280;63189;51.240;9.964;2023-02-26T03:14:38;97713.88;;;-2.44;97.85
54910;BME280;63189;51.240;9.964;2023-02-26T03:22:38;97718.00;;;-2.51;98.30
54910;BME280;63189;51.240;9.964;2023-02-26T03:25:16;97717.97;;;-2.52;98.18
54910;BME280;63189;51.240;9.964;2023-02-26T03:27:49;97725.59;;;-2.55;98.41
54910;BME280;63189;51.240;9.964;2023-02-26T03:30:21;97738.34;;;-2.57;98.42
54910;BME280;63189;51.240;9.964;2023-02-26T03:35:49;97743.34;;;-2.62;98.86
54910;BME280;63189;51.240;9.964;2023-02-26T03:41:08;97750.03;;;-2.70;98.45
54910;BME280;63189;51.240;9.964;2023-02-26T03:43:43;97753.41;;;-2.71;98.76
54910;BME280;63189;51.240;9.964;2023-02-26T03:46:15;97745.69;;;-2.74;99.46
54910;BME280;63189;51.240;9.964;2023-02-26T03:48:43;97746.50;;;-2.75;99.52
54910;BME280;63189;51.240;9.964;2023-02-26T03:51:11;97759.28;;;-2.73;99.34
54910;BME280;63189;51.240;9.964;2023-02-26T03:53:51;97760.16;;;-2.73;99.51
54910;BME280;63189;51.240;9.964;2023-02-26T03:58:57;97754.13;;;-2.78;99.93
54910;BME280;63189;51.240;9.964;2023-02-26T04:01:26;97739.56;;;-2.82;99.62
54910;BME280;63189;51.240;9.964;2023-02-26T04:04:04;97752.28;;;-2.83;100.00
54910;BME280;63189;51.240;9.964;2023-02-26T04:06:33;97756.50;;;-2.87;100.00
54910;BME280;63189;51.240;9.964;2023-02-26T04:08:59;97756.41;;;-2.92;99.97
54910;BME280;63189;51.240;9.964;2023-02-26T04:11:26;97763.19;;;-2.92;100.00
54910;BME280;63189;51.240;9.964;2023-02-26T04:13:52;97771.75;;;-2.90;100.00
54910;BME280;63189;51.240;9.964;2023-02-26T04:16:18;97770.91;;;-2.89;100.00
54910;BME280;63189;51.240;9.964;2023-02-26T04:18:43;97776.06;;;-2.86;100.00
54910;BME280;63189;51.240;9.964;2023-02-26T04:21:13;97770.13;;;-2.85;100.00
54910;BME280;63189;51.240;9.964;2023-02-26T04:23:40;97782.94;;;-2.82;100.00
54910;BME280;63189;51.240;9.964;2023-02-26T04:26:05;97782.94;;;-2.82;100.00
54910;BME280;63189;51.240;9.964;2023-02-26T04:28:30;97797.44;;;-2.81;100.00
54910;BME280;63189;51.240;9.964;2023-02-26T04:30:56;97794.06;;;-2.80;100.00
54910;BME280;63189;51.240;9.964;2023-02-26T04:33:21;97795.69;;;-2.82;100.00
54910;BME280;63189;51.240;9.964;2023-02-26T04:35:47;97796.63;;;-2.78;100.00
54910;BME280;63189;51.240;9.964;2023-02-26T04:38:13;97806.84;;;-2.78;100.00
54910;BME280;63189;51.240;9.964;2023-02-26T04:40:39;97799.06;;;-2.84;100.00
54910;BME280;63189;51.240;9.964;2023-02-26T04:43:04;97792.19;;;-2.87;100.00
54910;BME280;63189;51.240;9.964;2023-02-26T04:45:29;97800.75;;;-2.85;100.00
54910;BME280;63189;51.240;9.964;2023-02-26T04:47:55;97805.84;;;-2.85;100.00
54910;BME280;63189;51.240;9.964;2023-02-26T04:50:20;97806.72;;;-2.83;100.00
54910;BME280;63189;51.240;9.964;2023-02-26T04:52:45;97814.47;;;-2.80;100.00
54910;BME280;63189;51.240;9.964;2023-02-26T04:55:11;97805.13;;;-2.79;100.00
54910;BME280;63189;51.240;9.964;2023-02-26T04:57:36;97814.47;;;-2.80;100.00
54910;BME280;63189;51.240;9.964;2023-02-26T05:00:02;97817.94;;;-2.76;100.00
54910;BME280;63189;51.240;9.964;2023-02-26T05:02:31;97809.38;;;-2.80;100.00
54910;BME280;63189;51.240;9.964;2023-02-26T05:04:56;97823.88;;;-2.77;100.00
54910;BME280;63189;51.240;9.964;2023-02-26T05:07:21;97818.66;;;-2.82;100.00
54910;BME280;63189;51.240;9.964;2023-02-26T05:09:47;97820.34;;;-2.82;100.00
54910;BME280;63189;51.240;9.964;2023-02-26T05:12:12;97835.59;;;-2.85;100.00
54910;BME280;63189;51.240;9.964;2023-02-26T05:14:37;97838.19;;;-2.84;100.00
54910;BME280;63189;51.240;9.964;2023-02-26T05:17:03;97843.28;;;-2.84;100.00
54910;BME280;63189;51.240;9.964;2023-02-26T05:19:28;97844.13;;;-2.83;100.00
54910;BME280;63189;51.240;9.964;2023-02-26T05:21:53;97843.19;;;-2.88;100.00
54910;BME280;63189;51.240;9.964;2023-02-26T05:24:19;97853.38;;;-2.90;100.00
54910;BME280;63189;51.240;9.964;2023-02-26T05:26:44;97852.53;;;-2.91;100.00
54910;BME280;63189;51.240;9.964;2023-02-26T05:29:10;97866.13;;;-2.90;100.00
54910;BME280;63189;51.240;9.964;2023-02-26T05:31:37;97860.09;;;-2.94;100.00
54910;BME280;63189;51.240;9.964;2023-02-26T05:34:02;97866.00;;;-2.95;100.00
54910;BME280;63189;51.240;9.964;2023-02-26T05:36:28;97874.50;;;-2.96;100.00
54910;BME280;63189;51.240;9.964;2023-02-26T05:38:53;97876.22;;;-2.95;100.00
54910;BME280;63189;51.240;9.964;2023-02-26T05:41:18;97874.53;;;-2.94;100.00
54910;BME280;63189;51.240;9.964;2023-02-26T05:43:44;97878.72;;;-2.98;100.00
54910;BME280;63189;51.240;9.964;2023-02-26T05:46:09;97870.19;;;-2.98;100.00
54910;BME280;63189;51.240;9.964;2023-02-26T05:48:34;97885.47;;;-3.00;100.00
54910;BME280;63189;51.240;9.964;2023-02-26T05:51:00;97887.16;;;-3.00;100.00
54910;BME280;63189;51.240;9.964;2023-02-26T05:53:25;97882.75;;;-3.07;100.00
54910;BME280;63189;51.240;9.964;2023-02-26T05:55:52;97895.53;;;-3.06;100.00
54910;BME280;63189;51.240;9.964;2023-02-26T05:58:18;97898.88;;;-3.08;100.00
54910;BME280;63189;51.240;9.964;2023-02-26T06:00:43;97907.41;;;-3.08;100.00
54910;BME280;63189;51.240;9.964;2023-02-26T06:03:08;97903.94;;;-3.11;100.00
54910;BME280;63189;51.240;9.964;2023-02-26T06:05:34;97913.31;;;-3.09;100.00
54910;BME280;63189;51.240;9.964;2023-02-26T06:08:00;97908.19;;;-3.10;100.00
54910;BME280;63189;51.240;9.964;2023-02-26T06:10:25;97926.88;;;-3.11;100.00
54910;BME280;63189;51.240;9.964;2023-02-26T06:12:51;97936.16;;;-3.13;100.00
54910;BME280;63189;51.240;9.964;2023-02-26T06:15:16;97943.00;;;-3.12;100.00
54910;BME280;63189;51.240;9.964;2023-02-26T06:17:41;97945.56;;;-3.12;100.00
54910;BME280;63189;51.240;9.964;2023-02-26T06:20:08;97943.88;;;-3.12;100.00
54910;BME280;63189;51.240;9.964;2023-02-26T06:22:33;97959.97;;;-3.13;100.00
54910;BME280;63189;51.240;9.964;2023-02-26T06:24:58;97958.38;;;-3.09;100.00
54910;BME280;63189;51.240;9.964;2023-02-26T06:27:24;97960.09;;;-3.08;100.00
54910;BME280;63189;51.240;9.964;2023-02-26T06:29:50;97973.66;;;-3.09;100.00
54910;BME280;63189;51.240;9.964;2023-02-26T06:32:15;97980.56;;;-3.05;100.00
54910;BME280;63189;51.240;9.964;2023-02-26T06:34:40;97979.72;;;-3.04;100.00
54910;BME280;63189;51.240;9.964;2023-02-26T06:37:07;97984.06;;;-3.02;100.00
54910;BME280;63189;51.240;9.964;2023-02-26T06:39:33;97990.09;;;-2.98;100.00
54910;BME280;63189;51.240;9.964;2023-02-26T06:41:58;97991.78;;;-2.99;100.00
54910;BME280;63189;51.240;9.964;2023-02-26T06:44:24;97996.03;;;-2.98;100.00
54910;BME280;63189;51.240;9.964;2023-02-26T06:46:49;98002.88;;;-2.97;100.00
54910;BME280;63189;51.240;9.964;2023-02-26T06:49:15;98007.09;;;-2.97;100.00
54910;BME280;63189;51.240;9.964;2023-02-26T06:51:40;98013.25;;;-2.89;100.00
54910;BME280;63189;51.240;9.964;2023-02-26T06:54:05;98019.28;;;-2.85;100.00
54910;BME280;63189;51.240;9.964;2023-02-26T06:56:31;98017.72;;;-2.80;100.00
54910;BME280;63189;51.240;9.964;2023-02-26T06:58:56;98027.94;;;-2.79;100.00
54910;BME280;63189;51.240;9.964;2023-02-26T07:01:21;98031.41;;;-2.75;100.00
54910;BME280;63189;51.240;9.964;2023-02-26T07:03:48;98041.75;;;-2.71;100.00
54910;BME280;63189;51.240;9.964;2023-02-26T07:06:14;98041.81;;;-2.68;100.00
54910;BME280;63189;51.240;9.964;2023-02-26T07:08:39;98048.66;;;-2.65;100.00
54910;BME280;63189;51.240;9.964;2023-02-26T07:11:05;98051.44;;;-2.56;100.00
54910;BME280;63189;51.240;9.964;2023-02-26T07:13:30;98043.81;;;-2.54;100.00
54910;BME280;63189;51.240;9.964;2023-02-26T07:15:56;98054.19;;;-2.47;100.00
54910;BME280;63189;51.240;9.964;2023-02-26T07:18:21;98057.63;;;-2.45;100.00
54910;BME280;63189;51.240;9.964;2023-02-26T07:20:50;98080.66;;;-2.43;99.73
54910;BME280;63189;51.240;9.964;2023-02-26T07:23:15;98073.84;;;-2.43;99.75
54910;BME280;63189;51.240;9.964;2023-02-26T07:25:41;98079.81;;;-2.42;100.00
54910;BME280;63189;51.240;9.964;2023-02-26T07:28:06;98082.34;;;-2.44;99.56
54910;BME280;63189;51.240;9.964;2023-02-26T07:30:32;98079.81;;;-2.42;99.45
54910;BME280;63189;51.240;9.964;2023-02-26T07:32:57;98081.50;;;-2.43;99.23
54910;BME280;63189;51.240;9.964;2023-02-26T07:35:23;98083.25;;;-2.40;99.44
54910;BME280;63189;51.240;9.964;2023-02-26T07:37:48;98091.84;;;-2.38;99.78
54910;BME280;63189;51.240;9.964;2023-02-26T07:40:14;98094.44;;;-2.35;99.82
54910;BME280;63189;51.240;9.964;2023-02-26T07:42:39;98102.16;;;-2.32;99.80
54910;BME280;63189;51.240;9.964;2023-02-26T07:45:06;98103.13;;;-2.28;99.44
54910;BME280;63189;51.240;9.964;2023-02-26T07:47:32;98109.16;;;-2.25;99.27
54910;BME280;63189;51.240;9.964;2023-02-26T07:49:58;98118.53;;;-2.24;98.72
54910;BME280;63189;51.240;9.964;2023-02-26T07:52:23;98118.75;;;-2.15;98.87
54910;BME280;63189;51.240;9.964;2023-02-26T07:54:49;98114.88;;;-1.97;97.97
54910;BME280;63189;51.240;9.964;2023-02-26T07:57:14;98120.66;;;-1.64;97.76
54910;BME280;63189;51.240;9.964;2023-02-26T07:59:39;98118.16;;;-1.61;97.31
54910;BME280;63189;51.240;9.964;2023-02-26T08:02:05;98113.84;;;-1.63;97.14
54910;BME280;63189;51.240;9.964;2023-02-26T08:04:30;98119.19;;;-1.53;97.66
54910;BME280;63189;51.240;9.964;2023-02-26T08:06:58;98122.44;;;-1.60;97.08
54910;BME280;63189;51.240;9.964;2023-02-26T08:09:23;98114.69;;;-1.64;97.46
54910;BME280;63189;51.240;9.964;2023-02-26T08:11:50;98130.69;;;-1.73;96.10
54910;BME280;63189;51.240;9.964;2023-02-26T08:14:15;98122.16;;;-1.73;96.92
54910;BME280;63189;51.240;9.964;2023-02-26T08:16:40;98134.84;;;-1.78;95.65
54910;BME280;63189;51.240;9.964;2023-02-26T08:19:06;98133.91;;;-1.83;96.04
54910;BME280;63189;51.240;9.964;2023-02-26T08:21:31;98148.44;;;-1.79;96.98
54910;BME280;63189;51.240;9.964;2023-02-26T08:23:56;98146.97;;;-1.68;96.72
54910;BME280;63189;51.240;9.964;2023-02-26T08:26:22;98154.13;;;-1.53;96.71
54910;BME280;63189;51.240;9.964;2023-02-26T08:28:47;98153.50;;;-1.41;96.93
54910;BME280;63189;51.240;9.964;2023-02-26T08:31:14;98153.72;;;-1.31;97.25
54910;BME280;63189;51.240;9.964;2023-02-26T08:33:40;98159.88;;;-1.21;96.43
54910;BME280;63189;51.240;9.964;2023-02-26T08:36:06;98155.28;;;-0.92;93.36
54910;BME280;63189;51.240;9.964;2023-02-26T08:38:31;98164.72;;;-0.90;93.31
54910;BME280;63189;51.240;9.964;2023-02-26T08:40:57;98163.75;;;-0.95;93.03
54910;BME280;63189;51.240;9.964;2023-02-26T08:43:23;98177.38;;;-0.96;93.75
54910;BME280;63189;51.240;9.964;2023-02-26T08:45:51;98184.41;;;-0.85;94.79
54910;BME280;63189;51.240;9.964;2023-02-26T08:48:16;98175.13;;;-0.79;93.93
54910;BME280;63189;51.240;9.964;2023-02-26T08:50:42;98171.72;;;-0.30;92.95
54910;BME280;63189;51.240;9.964;2023-02-26T08:53:07;98183.69;;;-0.28;90.45
54910;BME280;63189;51.240;9.964;2023-02-26T08:55:32;98181.16;;;-0.25;91.52
54910;BME280;63189;51.240;9.964;2023-02-26T08:57:58;98186.31;;;-0.22;92.29
54910;BME280;63189;51.240;9.964;2023-02-26T09:00:23;98198.28;;;-0.23;91.33
54910;BME280;63189;51.240;9.964;2023-02-26T09:02:48;98194.75;;;-0.31;90.46
54910;BME280;63189;51.240;9.964;2023-02-26T09:05:14;98208.25;;;-0.41;89.94
54910;BME280;63189;51.240;9.964;2023-02-26T09:07:41;98200.41;;;-0.50;89.39
54910;BME280;63189;51.240;9.964;2023-02-26T09:10:07;98214.00;;;-0.53;90.15
54910;BME280;63189;51.240;9.964;2023-02-26T09:12:33;98215.66;;;-0.55;90.67
54910;BME280;63189;51.240;9.964;2023-02-26T09:15:04;98216.53;;;-0.53;90.68
54910;BME280;63189;51.240;9.964;2023-02-26T09:17:30;98217.47;;;-0.51;89.70
54910;BME280;63189;51.240;9.964;2023-02-26T09:19:56;98221.00;;;-0.43;90.54
54910;BME280;63189;51.240;9.964;2023-02-26T09:22:21;98217.53;;;-0.45;88.56
54910;BME280;63189;51.240;9.964;2023-02-26T09:24:47;98242.22;;;-0.50;88.81
54910;BME280;63189;51.240;9.964;2023-02-26T09:27:13;98237.94;;;-0.51;88.79
54910;BME280;63189;51.240;9.964;2023-02-26T09:29:39;98242.13;;;-0.56;88.02
54910;BME280;63189;51.240;9.964;2023-02-26T09:32:04;98250.63;;;-0.57;86.98
54910;BME280;63189;51.240;9.964;2023-02-26T09:34:33;98254.00;;;-0.61;86.03
54910;BME280;63189;51.240;9.964;2023-02-26T09:37:06;98260.84;;;-0.60;88.12
54910;BME280;63189;51.240;9.964;2023-02-26T09:39:32;98264.25;;;-0.60;85.93
54910;BME280;63189;51.240;9.964;2023-02-26T09:44:50;98270.31;;;-0.53;84.85
54910;BME280;63189;51.240;9.964;2023-02-26T09:47:23;98277.22;;;-0.52;84.92
54910;BME280;63189;51.240;9.964;2023-02-26T09:50:02;98272.81;;;-0.57;83.48
54910;BME280;63189;51.240;9.964;2023-02-26T09:52:39;98276.03;;;-0.68;81.52
54910;BME280;63189;51.240;9.964;2023-02-26T09:55:31;98293.13;;;-0.67;82.12
54910;BME280;63189;51.240;9.964;2023-02-26T09:58:03;98294.84;;;-0.66;83.46
54910;BME280;63189;51.240;9.964;2023-02-26T10:00:43;98299.22;;;-0.62;83.27
54910;BME280;63189;51.240;9.964;2023-02-26T10:03:32;98299.09;;;-0.66;82.80
54910;BME280;63189;51.240;9.964;2023-02-26T10:06:14;98297.44;;;-0.64;81.57
54910;BME280;63189;51.240;9.964;2023-02-26T10:14:35;98304.22;;;-0.66;79.84
54910;BME280;63189;51.240;9.964;2023-02-26T10:19:48;98312.56;;;-0.76;78.23
54910;BME280;63189;51.240;9.964;2023-02-26T10:22:40;98328.06;;;-0.70;80.82
54910;BME280;63189;51.240;9.964;2023-02-26T10:25:16;98317.06;;;-0.65;81.59
54910;BME280;63189;51.240;9.964;2023-02-26T10:36:18;98327.63;;;-0.49;78.46
54910;BME280;63189;51.240;9.964;2023-02-26T10:38:48;98319.13;;;-0.45;81.25
54910;BME280;63189;51.240;9.964;2023-02-26T10:41:19;98333.84;;;-0.35;79.13
54910;BME280;63189;51.240;9.964;2023-02-26T10:43:57;98329.22;;;-0.08;79.35
54910;BME280;63189;51.240;9.964;2023-02-26T10:46:50;98325.16;;;0.04;79.47
54910;BME280;63189;51.240;9.964;2023-02-26T10:49:45;98337.25;;;0.12;77.65
54910;BME280;63189;51.240;9.964;2023-02-26T10:52:18;98336.31;;;0.09;76.93
54910;BME280;63189;51.240;9.964;2023-02-26T10:55:06;98342.31;;;0.09;75.73
54910;BME280;63189;51.240;9.964;2023-02-26T10:57:40;98337.16;;;0.08;76.15
54910;BME280;63189;51.240;9.964;2023-02-26T11:00:15;98332.03;;;0.06;74.89
54910;BME280;63189;51.240;9.964;2023-02-26T11:02:47;98342.41;;;0.14;75.74
54910;BME280;63189;51.240;9.964;2023-02-26T11:05:26;98337.38;;;0.20;75.13
54910;BME280;63189;51.240;9.964;2023-02-26T11:08:03;98333.22;;;0.26;76.74
54910;BME280;63189;51.240;9.964;2023-02-26T11:10:39;98334.16;;;0.32;74.82
54910;BME280;63189;51.240;9.964;2023-02-26T11:13:05;98342.72;;;0.32;73.92
54910;BME280;63189;51.240;9.964;2023-02-26T11:15:31;98338.53;;;0.39;76.75
54910;BME280;63189;51.240;9.964;2023-02-26T11:17:57;98341.19;;;0.43;76.13
54910;BME280;63189;51.240;9.964;2023-02-26T11:20:44;98345.53;;;0.49;75.40
54910;BME280;63189;51.240;9.964;2023-02-26T11:23:12;98345.53;;;0.49;73.68
54910;BME280;63189;51.240;9.964;2023-02-26T11:25:39;98341.34;;;0.54;76.53
54910;BME280;63189;51.240;9.964;2023-02-26T11:28:28;98343.06;;;0.53;71.94
54910;BME280;63189;51.240;9.964;2023-02-26T11:30:54;98344.09;;;0.66;74.43
54910;BME280;63189;51.240;9.964;2023-02-26T11:33:33;98344.44;;;0.91;73.84
54910;BME280;63189;51.240;9.964;2023-02-26T11:36:02;98338.69;;;1.07;76.66
54910;BME280;63189;51.240;9.964;2023-02-26T11:38:30;98346.63;;;1.25;72.47
54910;BME280;63189;51.240;9.964;2023-02-26T11:41:00;98337.44;;;1.45;73.81
54910;BME280;63189;51.240;9.964;2023-02-26T11:43:34;98337.50;;;1.52;73.19
54910;BME280;63189;51.240;9.964;2023-02-26T11:46:01;98345.13;;;1.42;72.26
54910;BME280;63189;51.240;9.964;2023-02-26T11:48:50;98330.53;;;1.38;74.45
54910;BME280;63189;51.240;9.964;2023-02-26T11:51:19;98336.53;;;1.40;74.51
54910;BME280;63189;51.240;9.964;2023-02-26T11:53:50;98330.41;;;1.29;70.97
54910;BME280;63189;51.240;9.964;2023-02-26T11:56:38;98333.69;;;1.19;69.16
54910;BME280;63189;51.240;9.964;2023-02-26T11:59:14;98341.38;;;1.16;69.78
54910;BME280;63189;51.240;9.964;2023-02-26T12:01:42;98338.81;;;1.18;71.05
54910;BME280;63189;51.240;9.964;2023-02-26T12:04:10;98341.38;;;1.18;69.38
54910;BME280;63189;51.240;9.964;2023-02-26T12:06:36;98343.03;;;1.14;70.24
54910;BME280;63189;51.240;9.964;2023-02-26T12:09:02;98340.66;;;1.28;69.94
54910;BME280;63189;51.240;9.964;2023-02-26T12:14:57;98335.06;;;1.64;67.74
54910;BME280;63189;51.240;9.964;2023-02-26T12:26:28;98343.59;;;1.60;66.42
54910;BME280;63189;51.240;9.964;2023-02-26T12:35:23;98340.31;;;1.71;67.32
54910;BME280;63189;51.240;9.964;2023-02-26T13:02:24;98342.22;;;1.89;61.58
54910;BME280;63189;51.240;9.964;2023-02-26T13:07:48;98343.88;;;1.87;60.31
54910;BME280;63189;51.240;9.964;2023-02-26T13:10:28;98344.03;;;1.99;61.29
54910;BME280;63189;51.240;9.964;2023-02-26T13:21:00;98357.84;;;2.11;57.93
54910;BME280;63189;51.240;9.964;2023-02-26T13:23:51;98351.69;;;1.98;59.52
54910;BME280;63189;51.240;9.964;2023-02-26T13:26:19;98357.56;;;1.83;61.43
54910;BME280;63189;51.240;9.964;2023-02-26T13:29:02;98354.91;;;1.76;58.91
54910;BME280;63189;51.240;9.964;2023-02-26T13:34:19;98359.25;;;1.81;58.60
54910;BME280;63189;51.240;9.964;2023-02-26T13:36:49;98359.38;;;1.90;59.34
54910;BME280;63189;51.240;9.964;2023-02-26T13:44:55;98363.88;;;2.14;60.06
54910;BME280;63189;51.240;9.964;2023-02-26T13:58:39;98364.38;;;1.78;61.40
54910;BME280;63189;51.240;9.964;2023-02-26T14:01:18;98363.66;;;1.91;62.17
54910;BME280;63189;51.240;9.964;2023-02-26T14:04:03;98369.53;;;1.81;59.88
54910;BME280;63189;51.240;9.964;2023-02-26T14:06:42;98371.06;;;1.64;58.93
54910;BME280;63189;51.240;9.964;2023-02-26T14:09:42;98377.75;;;1.50;57.80
54910;BME280;63189;51.240;9.964;2023-02-26T14:14:42;98359.03;;;1.60;59.03
54910;BME280;63189;51.240;9.964;2023-02-26T14:19:45;98368.56;;;1.68;56.20
54910;BME280;63189;51.240;9.964;2023-02-26T14:22:36;98376.19;;;1.64;59.03
54910;BME280;63189;51.240;9.964;2023-02-26T14:25:36;98377.81;;;1.56;57.90
54910;BME280;63189;51.240;9.964;2023-02-26T14:28:40;98379.38;;;1.44;58.90
54910;BME280;63189;51.240;9.964;2023-02-26T14:31:13;98374.19;;;1.40;59.21
54910;BME280;63189;51.240;9.964;2023-02-26T14:33:45;98385.31;;;1.37;60.35
54910;BME280;63189;51.240;9.964;2023-02-26T14:36:19;98390.44;;;1.37;59.91
54910;BME280;63189;51.240;9.964;2023-02-26T14:38:46;98381.88;;;1.37;62.07
54910;BME280;63189;51.240;9.964;2023-02-26T14:41:32;98391.22;;;1.33;60.20
54910;BME280;63189;51.240;9.964;2023-02-26T14:44:13;98386.09;;;1.33;61.41
54910;BME280;63189;51.240;9.964;2023-02-26T14:46:41;98391.19;;;1.29;60.26
54910;BME280;63189;51.240;9.964;2023-02-26T14:49:16;98392.94;;;1.31;61.29
54910;BME280;63189;51.240;9.964;2023-02-26T14:58:16;98393.75;;;1.27;59.57
54910;BME280;63189;51.240;9.964;2023-02-26T15:00:52;98395.38;;;1.24;61.13
54910;BME280;63189;51.240;9.964;2023-02-26T15:03:53;98392.66;;;1.13;60.40
54910;BME280;63189;51.240;9.964;2023-02-26T15:09:24;98397.63;;;0.99;60.47
54910;BME280;63189;51.240;9.964;2023-02-26T15:11:56;98394.22;;;1.02;61.02
54910;BME280;63189;51.240;9.964;2023-02-26T15:14:44;98381.41;;;1.02;60.75
54910;BME280;63189;51.240;9.964;2023-02-26T15:25:34;98396.88;;;1.05;59.04
54910;BME280;63189;51.240;9.964;2023-02-26T15:28:06;98385.75;;;1.06;59.25
54910;BME280;63189;51.240;9.964;2023-02-26T15:30:32;98395.91;;;1.00;60.12
54910;BME280;63189;51.240;9.964;2023-02-26T15:33:02;98401.03;;;0.97;59.63
54910;BME280;63189;51.240;9.964;2023-02-26T15:35:30;98402.75;;;0.98;60.98
54910;BME280;63189;51.240;9.964;2023-02-26T15:37:59;98403.59;;;0.98;59.88
54910;BME280;63189;51.240;9.964;2023-02-26T15:40:29;98399.19;;;0.90;59.39
54910;BME280;63189;51.240;9.964;2023-02-26T15:42:56;98406.09;;;0.94;61.00
54910;BME280;63189;51.240;9.964;2023-02-26T15:45:36;98399.22;;;0.93;60.08
54910;BME280;63189;51.240;9.964;2023-02-26T15:48:25;98409.47;;;0.90;60.10
54910;BME280;63189;51.240;9.964;2023-02-26T15:50:56;98405.16;;;0.87;60.60
54910;BME280;63189;51.240;9.964;2023-02-26T15:55:55;98406.75;;;0.80;60.59